Time;durP1;ratioP1;P1;durP2;ratioP2;P2;SDS_P1;SDS_P2;PMS_P1;PMS_P2;Temp;Humidity;BMP_temperature;BMP_pressure;BME280_temperature;BME280_humidity;BME280_pressure;Samples;Min_cycle;Max_cycle;Signal;HPM_P1;HPM_P2
2022/10/25 00:01:16;;;;;;;16.63;3.30;;;13.70;99.90;;;;;;5104981;28;20393;-72
2022/10/25 00:03:42;;;;;;;14.77;2.80;;;13.60;99.90;;;;;;5107474;28;20435;-71
2022/10/25 00:06:11;;;;;;;15.40;3.77;;;13.60;99.90;;;;;;5107932;28;20406;-73
2022/10/25 00:08:38;;;;;;;14.35;2.92;;;13.50;99.90;;;;;;5108623;28;20378;-71
2022/10/25 00:11:05;;;;;;;14.10;2.75;;;13.50;99.90;;;;;;5088946;28;20405;-73
2022/10/25 00:13:32;;;;;;;11.20;2.70;;;13.60;99.90;;;;;;5111107;28;20385;-71
2022/10/25 00:15:57;;;;;;;12.32;2.83;;;13.70;99.90;;;;;;5110084;28;20385;-73
2022/10/25 00:18:23;;;;;;;12.70;2.75;;;13.80;99.90;;;;;;5091565;28;20378;-72
2022/10/25 00:20:49;;;;;;;15.02;3.15;;;13.80;99.90;;;;;;5109833;28;20413;-73
2022/10/25 00:23:15;;;;;;;9.45;2.58;;;13.80;99.90;;;;;;5107640;28;20386;-72
2022/10/25 00:25:40;;;;;;;12.75;3.00;;;13.80;99.90;;;;;;5108730;28;20416;-73
2022/10/25 00:28:06;;;;;;;12.43;3.10;;;13.70;99.90;;;;;;5108546;28;20374;-73
2022/10/25 00:30:32;;;;;;;13.10;2.58;;;13.80;99.90;;;;;;5110882;28;20386;-73
2022/10/25 00:32:57;;;;;;;15.10;3.03;;;13.80;99.90;;;;;;5110000;28;20382;-72
2022/10/25 00:35:23;;;;;;;13.43;2.53;;;13.70;99.90;;;;;;5090850;28;20404;-73
2022/10/25 00:37:49;;;;;;;12.00;2.93;;;13.80;99.90;;;;;;5109890;28;20413;-73
2022/10/25 00:40:16;;;;;;;12.13;2.88;;;13.90;99.90;;;;;;5110197;28;20382;-72
2022/10/25 00:42:41;;;;;;;15.55;2.72;;;13.90;99.90;;;;;;5109360;28;20393;-73
2022/10/25 00:45:27;;;;;;;14.03;3.10;;;13.90;99.90;;;;;;5108283;28;20410;-72
2022/10/25 00:48:08;;;;;;;14.85;3.45;;;13.90;99.90;;;;;;5109688;28;20394;-72
2022/10/25 00:50:44;;;;;;;13.85;3.25;;;13.90;99.90;;;;;;5106491;28;20382;-73
2022/10/25 00:53:17;;;;;;;12.75;3.40;;;13.80;99.90;;;;;;5103380;28;20372;-72
2022/10/25 00:55:46;;;;;;;10.98;3.50;;;13.90;99.90;;;;;;5098061;28;20423;-73
2022/10/25 00:58:17;;;;;;;15.63;4.00;;;14.00;99.90;;;;;;5097936;28;20742;-75
2022/10/25 01:00:44;;;;;;;14.43;3.60;;;14.20;99.90;;;;;;5097813;28;20389;-73
2022/10/25 01:03:11;;;;;;;24.00;4.00;;;14.20;99.90;;;;;;5097314;28;20431;-72
2022/10/25 01:05:37;;;;;;;11.52;3.38;;;14.20;99.90;;;;;;5096869;28;20506;-73
2022/10/25 01:08:04;;;;;;;11.25;3.00;;;14.30;99.90;;;;;;5096489;28;20417;-73
2022/10/25 01:10:31;;;;;;;16.38;3.30;;;14.30;99.90;;;;;;5096025;28;20381;-73
2022/10/25 01:12:58;;;;;;;18.70;2.80;;;14.30;99.90;;;;;;5095583;28;20434;-72
2022/10/25 01:15:32;;;;;;;14.13;3.47;;;14.40;99.90;;;;;;5095633;28;20382;-74
2022/10/25 01:18:05;;;;;;;11.95;2.70;;;14.50;99.90;;;;;;5094671;28;20370;-72
2022/10/25 01:21:05;;;;;;;9.40;3.03;;;14.50;99.90;;;;;;5095631;28;20481;-72
2022/10/25 01:23:53;;;;;;;11.30;2.33;;;14.60;98.40;;;;;;5079439;28;20390;-72
2022/10/25 01:26:46;;;;;;;8.20;2.67;;;14.70;95.40;;;;;;5094577;28;20821;-72
2022/10/25 01:29:49;;;;;;;8.70;2.42;;;14.60;95.30;;;;;;5095391;28;20469;-73
2022/10/25 01:32:22;;;;;;;10.25;2.80;;;14.50;95.90;;;;;;5095480;28;20374;-73
2022/10/25 01:35:08;;;;;;;12.68;2.65;;;14.50;95.20;;;;;;5076620;28;20382;-72
2022/10/25 01:37:46;;;;;;;11.70;3.10;;;14.50;96.70;;;;;;5094516;28;20386;-73
2022/10/25 01:40:28;;;;;;;9.82;2.70;;;14.60;96.70;;;;;;5093866;28;20952;-73
2022/10/25 01:43:18;;;;;;;12.93;2.88;;;14.50;96.30;;;;;;5093962;28;20801;-74
2022/10/25 01:46:22;;;;;;;13.97;3.50;;;14.50;98.20;;;;;;5093395;28;20394;-72
2022/10/25 01:48:54;;;;;;;7.95;2.60;;;14.50;97.20;;;;;;5077717;28;20390;-73
2022/10/25 01:51:19;;;;;;;12.87;2.80;;;14.50;96.60;;;;;;5093511;28;20401;-73
2022/10/25 01:53:47;;;;;;;10.77;3.00;;;14.50;96.30;;;;;;5093734;28;20381;-72
2022/10/25 01:56:26;;;;;;;15.10;3.30;;;14.40;97.50;;;;;;5093728;28;20389;-71
2022/10/25 01:59:03;;;;;;;12.35;3.03;;;14.40;98.50;;;;;;5093588;28;20846;-73
2022/10/25 02:01:57;;;;;;;13.80;3.47;;;14.30;99.20;;;;;;5093593;28;20385;-72
2022/10/25 02:04:34;;;;;;;12.30;3.35;;;14.20;99.90;;;;;;5093720;28;20379;-72
2022/10/25 02:07:09;;;;;;;15.60;3.38;;;14.10;99.90;;;;;;5093398;28;20432;-72
2022/10/25 02:09:37;;;;;;;12.65;3.50;;;14.10;99.90;;;;;;5093404;28;20374;-73
2022/10/25 02:12:09;;;;;;;8.35;2.90;;;14.10;99.90;;;;;;5093448;28;20385;-72
2022/10/25 02:14:37;;;;;;;16.35;3.30;;;14.10;99.90;;;;;;5093763;28;20435;-72
2022/10/25 02:17:12;;;;;;;13.18;3.20;;;14.10;99.90;;;;;;5093508;28;20378;-71
2022/10/25 02:19:42;;;;;;;9.13;2.90;;;14.00;99.90;;;;;;5093129;28;20908;-73
2022/10/25 02:22:09;;;;;;;12.48;3.00;;;14.00;99.90;;;;;;5093332;28;20386;-71
2022/10/25 02:24:36;;;;;;;10.73;3.10;;;14.00;99.90;;;;;;5093472;28;20386;-72
2022/10/25 02:27:05;;;;;;;15.45;3.65;;;14.00;99.90;;;;;;5075098;28;20434;-73
2022/10/25 02:29:33;;;;;;;8.93;2.70;;;13.90;99.90;;;;;;5092216;28;20481;-72
2022/10/25 02:31:58;;;;;;;12.55;2.80;;;13.90;99.90;;;;;;5093336;28;20388;-71
2022/10/25 02:34:24;;;;;;;15.07;3.60;;;13.90;99.90;;;;;;5096724;28;20382;-74
2022/10/25 02:36:52;;;;;;;10.50;2.90;;;14.00;99.90;;;;;;5097813;28;20567;-72
2022/10/25 02:39:19;;;;;;;17.63;3.08;;;14.00;99.90;;;;;;5096946;28;20386;-74
2022/10/25 02:41:45;;;;;;;11.40;2.58;;;14.10;99.90;;;;;;5095657;28;20920;-73
2022/10/25 02:44:10;;;;;;;12.50;2.60;;;14.20;99.90;;;;;;5075239;28;20386;-73
2022/10/25 02:46:36;;;;;;;9.67;3.10;;;14.10;99.90;;;;;;5104136;22;20438;-73
2022/10/25 02:49:02;;;;;;;12.50;3.20;;;14.20;99.90;;;;;;5091530;28;20382;-72
2022/10/25 02:51:27;;;;;;;16.15;2.70;;;14.10;99.90;;;;;;5091655;28;20508;-72
2022/10/25 02:53:53;;;;;;;7.45;2.50;;;14.10;99.90;;;;;;5091642;28;20850;-73
2022/10/25 02:56:20;;;;;;;6.82;2.58;;;14.20;99.90;;;;;;5091640;28;20416;-73
2022/10/25 02:58:47;;;;;;;8.67;2.40;;;14.20;99.90;;;;;;5073337;28;20499;-72
2022/10/25 03:01:15;;;;;;;11.05;2.60;;;14.20;99.90;;;;;;5091381;28;20404;-73
2022/10/25 03:03:41;;;;;;;12.05;3.20;;;14.20;99.90;;;;;;5091210;28;20378;-71
2022/10/25 03:06:07;;;;;;;8.02;2.50;;;14.20;99.90;;;;;;5090966;28;20920;-71
2022/10/25 03:08:33;;;;;;;10.77;2.58;;;14.20;99.90;;;;;;5090810;28;20392;-72
2022/10/25 03:10:59;;;;;;;12.63;2.83;;;14.30;99.90;;;;;;5090809;28;20371;-72
2022/10/25 03:13:25;;;;;;;15.13;2.55;;;14.30;99.40;;;;;;5072973;28;20378;-74
2022/10/25 03:15:51;;;;;;;8.52;2.22;;;14.40;99.90;;;;;;5091273;28;20792;-72
2022/10/25 03:18:17;;;;;;;11.40;2.97;;;14.50;99.70;;;;;;5091179;28;20386;-72
2022/10/25 03:20:43;;;;;;;12.55;2.40;;;14.50;99.30;;;;;;5091263;28;20457;-72
2022/10/25 03:23:10;;;;;;;12.13;2.60;;;14.50;99.20;;;;;;5090932;28;20434;-72
2022/10/25 03:25:35;;;;;;;13.20;2.63;;;14.40;99.90;;;;;;5090961;28;20417;-72
2022/10/25 03:28:01;;;;;;;13.73;2.77;;;14.50;99.90;;;;;;5072953;28;20746;-72
2022/10/25 03:30:28;;;;;;;15.93;2.95;;;14.50;99.90;;;;;;5072725;28;20381;-72
2022/10/25 03:32:54;;;;;;;11.77;2.57;;;14.40;99.90;;;;;;5090574;28;20959;-72
2022/10/25 03:35:20;;;;;;;12.23;3.00;;;14.50;99.90;;;;;;5090842;28;20878;-72
2022/10/25 03:37:47;;;;;;;10.15;2.60;;;14.50;99.00;;;;;;5091166;28;20397;-72
2022/10/25 03:40:13;;;;;;;9.25;2.80;;;14.40;99.90;;;;;;5090769;28;20382;-72
2022/10/25 03:42:38;;;;;;;14.30;2.50;;;14.40;99.60;;;;;;5094749;28;20963;-72
2022/10/25 03:45:04;;;;;;;12.80;3.20;;;14.40;99.80;;;;;;5094835;28;20746;-72
2022/10/25 03:47:30;;;;;;;9.75;2.42;;;14.30;99.90;;;;;;5094461;28;20509;-72
2022/10/25 03:49:55;;;;;;;7.95;2.65;;;14.20;99.90;;;;;;5094531;28;20468;-73
2022/10/25 03:52:21;;;;;;;11.98;2.80;;;14.20;99.90;;;;;;5094414;28;20382;-71
2022/10/25 03:54:47;;;;;;;8.83;2.70;;;14.30;99.90;;;;;;5076176;28;20382;-72
2022/10/25 03:57:12;;;;;;;16.17;3.17;;;14.30;99.90;;;;;;5094395;28;20378;-72
2022/10/25 03:59:38;;;;;;;11.80;2.85;;;14.30;99.90;;;;;;5094166;28;20477;-71
2022/10/25 04:02:03;;;;;;;12.18;2.97;;;14.40;99.90;;;;;;5094258;28;20386;-71
2022/10/25 04:04:29;;;;;;;13.40;2.90;;;14.40;99.20;;;;;;5094193;28;20386;-72
2022/10/25 04:06:55;;;;;;;14.43;3.30;;;14.40;99.40;;;;;;5094450;28;20397;-72
2022/10/25 04:09:20;;;;;;;10.07;2.80;;;14.40;99.80;;;;;;5094023;28;20432;-73
2022/10/25 04:11:46;;;;;;;11.80;3.20;;;14.50;98.90;;;;;;5094249;28;20418;-72
2022/10/25 04:14:12;;;;;;;11.93;2.90;;;14.40;99.50;;;;;;5094562;28;20864;-71
2022/10/25 04:16:38;;;;;;;10.63;2.97;;;14.50;96.90;;;;;;5094138;28;20384;-72
2022/10/25 04:19:03;;;;;;;12.73;3.00;;;14.50;96.30;;;;;;5094502;28;20766;-71
2022/10/25 04:21:29;;;;;;;9.82;2.75;;;14.50;95.90;;;;;;5094571;28;20378;-73
2022/10/25 04:23:54;;;;;;;13.93;3.43;;;14.60;95.60;;;;;;5095392;28;21018;-73
2022/10/25 04:26:20;;;;;;;11.27;2.80;;;14.50;97.10;;;;;;5094104;28;20459;-73
2022/10/25 04:28:50;;;;;;;7.35;2.97;;;14.50;95.70;;;;;;5093795;28;20890;-72
2022/10/25 04:31:15;;;;;;;12.25;3.35;;;14.50;95.70;;;;;;5093719;28;20435;-73
2022/10/25 04:33:41;;;;;;;10.60;3.03;;;14.40;96.30;;;;;;5093899;28;20512;-73
2022/10/25 04:36:07;;;;;;;10.70;2.88;;;14.50;95.60;;;;;;5093812;28;20388;-74
2022/10/25 04:38:32;;;;;;;13.95;3.90;;;14.50;96.70;;;;;;5094012;28;20393;-73
2022/10/25 04:40:59;;;;;;;10.15;3.40;;;14.50;96.80;;;;;;5093819;28;20382;-73
2022/10/25 04:43:26;;;;;;;17.25;3.67;;;14.40;97.40;;;;;;5094040;28;20390;-72
2022/10/25 04:45:52;;;;;;;14.65;3.85;;;14.40;99.20;;;;;;5093817;28;20932;-72
2022/10/25 04:48:19;;;;;;;13.20;3.50;;;14.40;97.90;;;;;;5093870;28;20422;-72
2022/10/25 04:50:45;;;;;;;10.65;3.60;;;14.40;98.60;;;;;;5093793;28;20420;-72
2022/10/25 04:53:10;;;;;;;12.07;3.63;;;14.40;99.90;;;;;;5092581;28;20857;-74
2022/10/25 04:55:36;;;;;;;11.73;3.70;;;14.50;97.40;;;;;;5098187;28;20390;-73
2022/10/25 04:58:02;;;;;;;12.73;4.28;;;14.50;97.60;;;;;;5102864;28;20392;-74
2022/10/25 05:00:28;;;;;;;20.17;4.57;;;14.60;96.60;;;;;;5095017;28;20401;-75
2022/10/25 05:02:54;;;;;;;11.93;3.60;;;14.60;94.70;;;;;;5100467;28;20769;-72
2022/10/25 05:05:21;;;;;;;16.67;4.60;;;14.70;93.10;;;;;;5100802;28;20382;-72
2022/10/25 05:07:47;;;;;;;10.98;3.60;;;14.80;91.90;;;;;;5093544;28;20385;-72
2022/10/25 05:10:13;;;;;;;10.98;4.03;;;14.60;92.70;;;;;;5093858;28;20393;-73
2022/10/25 05:12:38;;;;;;;11.77;4.35;;;14.70;92.50;;;;;;5075461;28;20515;-73
2022/10/25 05:15:05;;;;;;;11.23;3.90;;;14.70;92.20;;;;;;5075721;28;20800;-73
2022/10/25 05:17:30;;;;;;;13.93;4.40;;;14.70;92.50;;;;;;5093933;28;20390;-74
2022/10/25 05:19:56;;;;;;;14.37;4.20;;;14.60;94.80;;;;;;5093583;28;20897;-73
2022/10/25 05:22:21;;;;;;;12.15;4.20;;;14.60;94.10;;;;;;5093098;28;20389;-73
2022/10/25 05:24:47;;;;;;;13.02;4.20;;;14.70;92.20;;;;;;5093259;28;20390;-73
2022/10/25 05:27:13;;;;;;;20.20;4.60;;;14.70;92.20;;;;;;5096942;28;20484;-73
2022/10/25 05:29:38;;;;;;;15.37;4.50;;;14.70;93.00;;;;;;5094985;28;20378;-73
2022/10/25 05:32:04;;;;;;;12.52;4.20;;;14.50;95.00;;;;;;5093134;28;20405;-72
2022/10/25 05:34:29;;;;;;;11.27;3.95;;;14.50;96.10;;;;;;5093255;28;20382;-72
2022/10/25 05:36:56;;;;;;;11.80;3.90;;;14.40;96.80;;;;;;5093375;28;20391;-72
2022/10/25 05:39:21;;;;;;;10.88;3.70;;;14.40;97.00;;;;;;5093356;28;20386;-72
2022/10/25 05:41:48;;;;;;;15.17;3.73;;;14.30;98.90;;;;;;5100316;28;20394;-74
2022/10/25 05:44:15;;;;;;;12.70;4.30;;;14.40;99.90;;;;;;5101115;28;20405;-73
2022/10/25 05:46:41;;;;;;;7.57;3.78;;;14.30;99.90;;;;;;5092730;28;20910;-73
2022/10/25 05:49:07;;;;;;;12.80;3.72;;;14.20;99.90;;;;;;5095215;28;20431;-73
2022/10/25 05:51:33;;;;;;;10.85;4.00;;;14.20;99.90;;;;;;5092585;28;20417;-73
2022/10/25 05:54:02;;;;;;;14.40;3.87;;;14.20;99.90;;;;;;5092894;28;20389;-73
2022/10/25 05:56:30;;;;;;;13.15;3.63;;;14.20;99.90;;;;;;5092229;28;20460;-72
2022/10/25 05:58:56;;;;;;;13.02;3.70;;;14.20;99.90;;;;;;5073526;28;20731;-74
2022/10/25 06:01:22;;;;;;;11.32;4.03;;;14.20;99.90;;;;;;5092873;28;20488;-73
2022/10/25 06:03:52;;;;;;;13.02;4.00;;;14.20;99.90;;;;;;5099363;28;20388;-74
2022/10/25 06:06:19;;;;;;;12.52;3.65;;;14.20;99.90;;;;;;5099641;28;20471;-73
2022/10/25 06:08:47;;;;;;;13.82;3.90;;;14.10;99.90;;;;;;5084301;28;20450;-72
2022/10/25 06:11:15;;;;;;;18.13;4.40;;;14.10;99.90;;;;;;5078820;28;20383;-72
2022/10/25 06:13:42;;;;;;;19.77;5.00;;;14.00;99.90;;;;;;5074656;28;20390;-73
2022/10/25 06:16:10;;;;;;;12.70;3.97;;;14.00;99.90;;;;;;5106145;28;20500;-74
2022/10/25 06:18:39;;;;;;;18.92;4.60;;;14.10;99.90;;;;;;5094155;28;20712;-73
2022/10/25 06:21:08;;;;;;;11.48;3.72;;;14.20;99.90;;;;;;5089694;28;20441;-72
2022/10/25 06:23:35;;;;;;;11.80;3.85;;;14.30;98.90;;;;;;5089816;28;20386;-73
2022/10/25 06:26:02;;;;;;;16.27;4.10;;;14.40;97.40;;;;;;5089730;28;20406;-73
2022/10/25 06:28:28;;;;;;;12.05;4.10;;;14.30;95.60;;;;;;5090035;28;20398;-72
2022/10/25 06:31:03;;;;;;;15.95;4.28;;;14.30;94.00;;;;;;5071749;28;20888;-72
2022/10/25 06:33:29;;;;;;;11.35;3.53;;;14.20;95.30;;;;;;5072509;28;20390;-74
2022/10/25 06:36:00;;;;;;;13.37;4.23;;;14.20;96.10;;;;;;5089757;28;20724;-73
2022/10/25 06:38:26;;;;;;;13.93;4.00;;;14.10;97.90;;;;;;5089615;28;20511;-73
2022/10/25 06:40:58;;;;;;;12.65;4.30;;;14.00;98.00;;;;;;5090372;28;20497;-73
2022/10/25 06:43:24;;;;;;;12.85;4.13;;;13.90;99.60;;;;;;5089613;28;20998;-73
2022/10/25 06:45:49;;;;;;;18.85;4.30;;;13.80;99.90;;;;;;5071002;28;20500;-73
2022/10/25 06:48:15;;;;;;;15.73;4.70;;;13.80;99.90;;;;;;5089654;28;20402;-74
2022/10/25 06:50:40;;;;;;;10.97;5.00;;;13.70;99.90;;;;;;5089939;28;20904;-74
2022/10/25 06:53:06;;;;;;;14.47;5.23;;;13.80;99.90;;;;;;5088693;28;20393;-74
2022/10/25 06:55:31;;;;;;;14.07;4.60;;;13.90;99.90;;;;;;5088643;28;20884;-75
2022/10/25 06:57:57;;;;;;;16.35;4.90;;;14.00;99.90;;;;;;5089019;28;20822;-73
2022/10/25 07:00:23;;;;;;;16.60;4.60;;;14.00;99.90;;;;;;5070382;28;20436;-72
2022/10/25 07:02:59;;;;;;;17.20;4.17;;;14.00;99.90;;;;;;5088261;28;20417;-72
2022/10/25 07:05:25;;;;;;;14.45;4.70;;;14.10;99.30;;;;;;5086717;28;20378;-75
2022/10/25 07:07:51;;;;;;;19.20;4.63;;;14.00;99.70;;;;;;5088829;28;20413;-73
2022/10/25 07:10:18;;;;;;;10.73;4.00;;;14.00;99.90;;;;;;5071046;28;20970;-74
2022/10/25 07:12:43;;;;;;;11.98;4.47;;;14.10;99.90;;;;;;5088101;28;20402;-72
2022/10/25 07:15:10;;;;;;;10.50;4.10;;;14.00;99.60;;;;;;5087838;28;20390;-73
2022/10/25 07:17:35;;;;;;;17.85;5.70;;;14.00;99.90;;;;;;5089126;28;20386;-74
2022/10/25 07:20:01;;;;;;;16.27;4.47;;;13.90;99.90;;;;;;5068899;28;20482;-73
2022/10/25 07:22:28;;;;;;;13.52;4.38;;;13.90;99.90;;;;;;5087755;28;20436;-73
2022/10/25 07:24:54;;;;;;;15.00;4.60;;;13.90;99.90;;;;;;5077884;28;20390;-73
2022/10/25 07:27:20;;;;;;;11.00;3.88;;;13.90;99.90;;;;;;5064084;28;20424;-74
2022/10/25 07:29:45;;;;;;;14.25;4.82;;;14.00;99.90;;;;;;5068091;28;20391;-72
2022/10/25 07:32:11;;;;;;;12.32;4.00;;;14.10;99.90;;;;;;5067553;28;20380;-73
2022/10/25 07:34:36;;;;;;;15.77;4.00;;;14.10;98.80;;;;;;5074248;28;20402;-73
2022/10/25 07:37:02;;;;;;;11.90;4.47;;;14.20;97.60;;;;;;5088650;28;20393;-72
2022/10/25 07:39:28;;;;;;;12.23;4.00;;;14.40;93.90;;;;;;5088453;28;20720;-72
2022/10/25 07:41:53;;;;;;;13.73;4.20;;;14.30;93.30;;;;;;5087884;28;20385;-73
2022/10/25 07:44:20;;;;;;;12.37;4.20;;;14.30;95.10;;;;;;5088917;28;20412;-73
2022/10/25 07:46:46;;;;;;;14.50;4.57;;;14.40;93.30;;;;;;5088676;28;20954;-73
2022/10/25 07:49:12;;;;;;;16.60;4.40;;;14.50;92.70;;;;;;5089797;28;20398;-73
2022/10/25 07:51:37;;;;;;;14.02;4.40;;;14.70;91.20;;;;;;5091768;28;20382;-73
2022/10/25 07:54:03;;;;;;;13.50;3.90;;;14.90;87.00;;;;;;5093675;28;20734;-73
2022/10/25 07:56:29;;;;;;;15.40;4.18;;;15.10;82.80;;;;;;5092089;28;20492;-73
2022/10/25 07:58:55;;;;;;;12.93;4.47;;;15.30;80.00;;;;;;5094821;28;20382;-73
2022/10/25 08:01:26;;;;;;;13.80;3.85;;;15.30;78.80;;;;;;5076497;28;20389;-74
2022/10/25 08:03:53;;;;;;;9.73;3.97;;;15.50;76.00;;;;;;5089690;28;20837;-72
2022/10/25 08:06:20;;;;;;;12.85;4.20;;;15.50;75.30;;;;;;5091094;28;20974;-74
2022/10/25 08:08:45;;;;;;;11.43;4.32;;;15.50;73.40;;;;;;5093102;28;20374;-74
2022/10/25 08:11:11;;;;;;;14.30;4.40;;;15.60;72.70;;;;;;5092204;28;20894;-74
2022/10/25 08:13:38;;;;;;;10.40;4.30;;;15.70;71.10;;;;;;5091280;28;20378;-74
2022/10/25 08:16:04;;;;;;;12.25;3.75;;;15.70;71.50;;;;;;5073836;28;20774;-73
2022/10/25 08:18:30;;;;;;;11.82;3.30;;;15.70;71.50;;;;;;5090687;28;20404;-74
2022/10/25 08:20:56;;;;;;;13.60;4.20;;;15.70;70.60;;;;;;5089017;28;20394;-73
2022/10/25 08:23:22;;;;;;;13.15;3.65;;;15.60;72.90;;;;;;5090625;28;20463;-74
2022/10/25 08:25:48;;;;;;;10.52;3.10;;;15.60;71.70;;;;;;5074169;28;20445;-74
2022/10/25 08:28:14;;;;;;;9.32;3.90;;;15.50;72.60;;;;;;5097458;28;20889;-73
2022/10/25 08:30:40;;;;;;;15.00;3.13;;;15.40;74.10;;;;;;5093092;28;20386;-73
2022/10/25 08:33:06;;;;;;;11.70;3.53;;;15.40;75.40;;;;;;5073309;28;20424;-74
2022/10/25 08:35:32;;;;;;;15.20;4.00;;;15.50;72.20;;;;;;5092583;28;20870;-74
2022/10/25 08:38:01;;;;;;;13.57;4.23;;;15.50;73.40;;;;;;5092740;28;20422;-74
2022/10/25 08:41:02;;;;;;;13.98;3.90;;;15.60;73.90;;;;;;5092838;28;20709;-73
2022/10/25 08:43:51;;;;;;;13.38;3.70;;;15.60;72.80;;;;;;5084787;28;20393;-73
2022/10/25 08:49:03;;;;;;;9.55;3.53;;;15.90;70.50;;;;;;5091401;28;20460;-74
2022/10/25 08:51:34;;;;;;;15.07;3.60;;;15.90;69.00;;;;;;5093917;28;20420;-74
2022/10/25 08:54:05;;;;;;;13.52;3.20;;;15.90;67.60;;;;;;5093233;28;20370;-75
2022/10/25 08:56:31;;;;;;;12.93;4.30;;;15.90;68.30;;;;;;5093314;28;20392;-74
2022/10/25 08:59:01;;;;;;;12.00;3.38;;;15.90;67.90;;;;;;5093623;28;20423;-75
2022/10/25 09:01:37;;;;;;;13.63;3.70;;;15.90;64.80;;;;;;5099235;28;20809;-75
2022/10/25 09:04:03;;;;;;;12.53;3.50;;;15.90;67.40;;;;;;5093197;28;20397;-76
2022/10/25 09:06:37;;;;;;;13.93;3.43;;;15.80;66.50;;;;;;5092330;28;20409;-74
2022/10/25 09:09:04;;;;;;;10.48;3.40;;;15.80;66.30;;;;;;5073239;28;20533;-74
2022/10/25 09:11:29;;;;;;;10.68;3.95;;;15.70;66.90;;;;;;5091303;28;20465;-73
2022/10/25 09:14:06;;;;;;;17.43;3.90;;;15.60;69.60;;;;;;5095816;28;20398;-75
2022/10/25 09:16:51;;;;;;;16.23;3.80;;;15.70;69.80;;;;;;5097120;28;20403;-75
2022/10/25 09:19:56;;;;;;;16.02;3.90;;;15.70;69.10;;;;;;5094735;28;20396;-74
2022/10/25 09:22:30;;;;;;;13.27;3.80;;;15.90;66.60;;;;;;5112331;28;20420;-75
2022/10/25 09:25:03;;;;;;;17.05;3.90;;;16.00;64.80;;;;;;5112388;28;20384;-74
2022/10/25 09:27:41;;;;;;;15.75;3.70;;;16.10;62.50;;;;;;5112217;28;20408;-76
2022/10/25 09:30:11;;;;;;;16.08;3.35;;;16.20;61.50;;;;;;5093449;28;20385;-76
2022/10/25 09:33:06;;;;;;;9.90;3.50;;;16.30;57.40;;;;;;5101782;28;20378;-76
2022/10/25 09:35:41;;;;;;;16.83;3.50;;;16.20;58.90;;;;;;5055394;28;20420;-75
2022/10/25 09:38:11;;;;;;;11.98;3.17;;;16.30;56.90;;;;;;5072435;28;20386;-74
2022/10/25 09:40:56;;;;;;;10.70;3.20;;;16.40;55.70;;;;;;5090751;28;20409;-76
2022/10/25 09:44:08;;;;;;;12.50;3.53;;;16.50;56.40;;;;;;5089363;28;20402;-76
2022/10/25 09:46:50;;;;;;;11.50;3.05;;;16.60;54.40;;;;;;5038259;28;20424;-75
2022/10/25 09:49:27;;;;;;;10.82;3.40;;;16.80;54.00;;;;;;5076998;28;20434;-75
2022/10/25 09:52:09;;;;;;;11.30;3.13;;;16.90;52.80;;;;;;5069342;28;20392;-75
2022/10/25 09:55:18;;;;;;;11.73;2.80;;;17.10;51.10;;;;;;5069510;28;20384;-75
2022/10/25 09:57:45;;;;;;;9.43;2.40;;;17.30;48.00;;;;;;5053780;28;20399;-75
2022/10/25 10:00:14;;;;;;;10.07;2.85;;;17.30;48.00;;;;;;5070929;28;20894;-75
2022/10/25 10:02:40;;;;;;;14.23;3.50;;;17.30;46.90;;;;;;5073827;28;20443;-76
2022/10/25 10:05:15;;;;;;;10.43;3.37;;;17.30;47.90;;;;;;5090407;28;20389;-76
2022/10/25 10:07:42;;;;;;;11.50;3.38;;;17.30;48.80;;;;;;5089292;28;20890;-75
2022/10/25 10:10:13;;;;;;;11.50;3.08;;;17.30;46.90;;;;;;5089890;28;20382;-76
2022/10/25 10:12:46;;;;;;;9.50;3.05;;;17.20;46.20;;;;;;5088399;28;20739;-76
2022/10/25 10:15:23;;;;;;;7.80;3.00;;;17.20;47.00;;;;;;5089816;28;20382;-75
2022/10/25 10:18:27;;;;;;;13.18;3.33;;;17.20;45.60;;;;;;5089945;28;20432;-74
2022/10/25 10:20:58;;;;;;;14.07;3.40;;;17.50;45.10;;;;;;5091007;28;20442;-76
2022/10/25 10:37:19;;;;;;;7.60;3.30;;;18.20;40.70;;;;;;5089506;28;20856;-75
2022/10/25 10:40:24;;;;;;;9.13;3.20;;;18.20;39.60;;;;;;5089218;28;20401;-75
2022/10/25 10:42:49;;;;;;;9.50;3.40;;;18.10;40.90;;;;;;5088070;28;20378;-75
2022/10/25 10:45:17;;;;;;;8.10;2.30;;;18.30;41.00;;;;;;5088781;28;20426;-74
2022/10/25 10:47:48;;;;;;;7.07;2.15;;;18.30;38.00;;;;;;5088796;28;20435;-77
2022/10/25 10:50:23;;;;;;;7.30;2.60;;;18.00;38.90;;;;;;5089731;28;20483;-74
2022/10/25 10:52:59;;;;;;;5.95;2.60;;;17.90;39.40;;;;;;5089726;28;20382;-74
2022/10/25 10:55:28;;;;;;;6.90;2.03;;;17.90;39.90;;;;;;5088988;28;20846;-74
2022/10/25 10:57:59;;;;;;;4.00;1.80;;;17.90;38.90;;;;;;5089835;28;20390;-75
2022/10/25 11:00:28;;;;;;;11.90;2.43;;;17.80;38.20;;;;;;5089540;28;20431;-74
2022/10/25 11:02:54;;;;;;;11.15;2.35;;;17.70;39.00;;;;;;5089098;28;20420;-74
2022/10/25 11:05:33;;;;;;;9.77;1.98;;;17.80;38.90;;;;;;5090817;28;20407;-74
2022/10/25 11:07:59;;;;;;;7.85;2.10;;;17.90;37.70;;;;;;5088516;28;20428;-75
2022/10/25 11:10:31;;;;;;;12.95;2.90;;;17.80;39.10;;;;;;5074685;28;20388;-75
2022/10/25 11:13:12;;;;;;;12.02;3.00;;;17.80;39.70;;;;;;5072806;28;20477;-75
2022/10/25 11:16:17;;;;;;;6.47;2.40;;;17.80;39.90;;;;;;5070296;28;20446;-76
2022/10/25 11:19:10;;;;;;;7.60;2.40;;;17.90;39.50;;;;;;5086302;28;20386;-75
2022/10/25 11:21:51;;;;;;;5.68;2.30;;;18.00;39.00;;;;;;5087821;28;20768;-74
2022/10/25 11:24:48;;;;;;;8.15;2.30;;;18.00;39.40;;;;;;5089036;28;20389;-75
2022/10/25 11:27:50;;;;;;;9.33;2.47;;;18.10;38.80;;;;;;5088550;28;20398;-75
2022/10/25 11:30:18;;;;;;;10.23;2.70;;;18.40;38.20;;;;;;5088648;28;20497;-75
2022/10/25 11:33:06;;;;;;;17.20;3.50;;;18.60;37.10;;;;;;5088246;28;20758;-77
2022/10/25 11:35:53;;;;;;;9.10;2.75;;;18.80;36.10;;;;;;5091232;28;20484;-75
2022/10/25 11:38:29;;;;;;;8.25;2.30;;;18.80;36.50;;;;;;5088371;28;20476;-75
2022/10/25 11:41:13;;;;;;;8.50;2.40;;;18.80;35.60;;;;;;5088678;28;20398;-75
2022/10/25 11:43:39;;;;;;;11.52;2.40;;;18.50;36.30;;;;;;5087757;28;20397;-75
2022/10/25 11:46:28;;;;;;;9.63;2.27;;;18.20;37.80;;;;;;5088704;28;20401;-75
2022/10/25 11:49:07;;;;;;;8.15;2.40;;;18.00;38.20;;;;;;5091251;28;20382;-75
2022/10/25 11:51:48;;;;;;;11.15;2.10;;;17.90;39.10;;;;;;5093516;28;20535;-76
2022/10/25 11:54:31;;;;;;;9.57;2.50;;;17.80;39.20;;;;;;5074955;28;20390;-75
2022/10/25 11:57:13;;;;;;;10.50;2.50;;;17.80;39.60;;;;;;5096000;28;20393;-76
2022/10/25 12:00:00;;;;;;;4.90;2.20;;;17.70;40.30;;;;;;5095067;28;20385;-75
2022/10/25 12:02:49;;;;;;;9.00;2.30;;;17.70;40.70;;;;;;5092368;28;20812;-75
2022/10/25 12:05:30;;;;;;;12.68;2.33;;;17.70;41.00;;;;;;5095113;28;20394;-75
2022/10/25 12:08:21;;;;;;;8.82;2.50;;;17.60;41.70;;;;;;5082140;28;20933;-74
2022/10/25 12:11:01;;;;;;;7.80;2.45;;;17.60;40.90;;;;;;5097234;28;20478;-75
2022/10/25 12:13:28;;;;;;;8.57;2.63;;;17.70;41.30;;;;;;5097400;28;20447;-75
2022/10/25 12:15:56;;;;;;;5.35;2.30;;;17.80;40.60;;;;;;5076814;28;20469;-74
2022/10/25 12:18:28;;;;;;;11.40;2.72;;;18.00;40.00;;;;;;5096558;28;20462;-74
2022/10/25 12:20:55;;;;;;;13.10;2.75;;;18.10;39.40;;;;;;5077177;28;20742;-75
2022/10/25 12:23:23;;;;;;;9.23;2.55;;;18.10;39.70;;;;;;5097353;28;20382;-73
2022/10/25 12:25:57;;;;;;;12.95;3.20;;;18.00;40.30;;;;;;5095936;28;20430;-75
2022/10/25 12:28:25;;;;;;;16.27;2.85;;;18.00;41.30;;;;;;5091781;28;20377;-75
2022/10/25 12:30:57;;;;;;;9.35;3.08;;;18.00;40.40;;;;;;5091071;28;20378;-73
2022/10/25 12:33:37;;;;;;;12.80;2.90;;;17.90;41.20;;;;;;5091774;28;20401;-75
2022/10/25 12:36:18;;;;;;;7.82;2.70;;;17.90;41.10;;;;;;5092217;28;20393;-76
2022/10/25 12:38:43;;;;;;;10.40;2.90;;;18.00;42.20;;;;;;5091817;28;20420;-74
2022/10/25 12:41:15;;;;;;;13.20;2.50;;;18.00;41.80;;;;;;5091494;28;20566;-74
2022/10/25 12:43:46;;;;;;;7.87;2.60;;;18.00;40.20;;;;;;5092105;28;20878;-75
2022/10/25 12:46:45;;;;;;;7.05;2.05;;;18.10;40.20;;;;;;5073705;28;20408;-75
2022/10/25 12:49:26;;;;;;;7.95;2.25;;;18.30;39.00;;;;;;5095644;28;20884;-75
2022/10/25 12:52:27;;;;;;;8.68;2.22;;;18.40;38.00;;;;;;5079742;28;20473;-75
2022/10/25 12:55:08;;;;;;;6.30;2.15;;;18.50;37.40;;;;;;5073812;28;20869;-75
2022/10/25 12:57:58;;;;;;;7.18;1.92;;;18.60;36.80;;;;;;5074347;28;20382;-75
2022/10/25 13:00:24;;;;;;;8.93;2.27;;;18.60;35.90;;;;;;5091783;28;20435;-75
2022/10/25 13:03:28;;;;;;;8.53;2.10;;;18.70;35.20;;;;;;5091307;28;20445;-75
2022/10/25 13:06:01;;;;;;;4.75;1.85;;;18.70;34.30;;;;;;5092247;28;20439;-75
2022/10/25 13:08:28;;;;;;;13.15;2.67;;;18.70;34.90;;;;;;5091557;28;20386;-75
2022/10/25 13:11:03;;;;;;;8.40;2.30;;;18.80;35.50;;;;;;5090939;28;20874;-74
2022/10/25 13:13:37;;;;;;;6.53;2.28;;;18.90;35.30;;;;;;5090650;28;20386;-76
2022/10/25 13:16:05;;;;;;;10.60;2.45;;;19.10;34.50;;;;;;5091225;28;20427;-76